Time;durP1;ratioP1;P1;durP2;ratioP2;P2;SDS_P1;SDS_P2;PMS_P1;PMS_P2;Temp;Humidity;BMP_temperature;BMP_pressure;BME280_temperature;BME280_humidity;BME280_pressure;Samples;Min_cycle;Max_cycle;Signal;HPM_P1;HPM_P2
2024/03/03 00:01:13;;;;;;;1.50;1.02;;;;;;;17.46;52.73;99704.78;10451016;28;20315;-57
2024/03/03 00:06:14;;;;;;;1.80;0.90;;;;;;;17.47;52.25;99706.34;10449352;28;20178;-57
2024/03/03 00:11:14;;;;;;;1.30;0.80;;;;;;;17.45;52.28;99708.56;10449962;28;20326;-57
2024/03/03 00:16:14;;;;;;;1.77;0.80;;;;;;;17.43;52.02;99700.06;10450151;28;20705;-57
2024/03/03 00:21:15;;;;;;;1.95;1.00;;;;;;;17.40;53.05;99697.97;10449536;28;20640;-57
2024/03/03 00:26:15;;;;;;;2.33;1.00;;;;;;;17.43;52.72;99698.16;10450043;28;20025;-56
2024/03/03 00:31:18;;;;;;;1.90;1.20;;;;;;;17.43;52.45;99686.66;10449789;28;20280;-57
2024/03/03 00:36:19;;;;;;;2.03;1.23;;;;;;;17.43;53.19;99689.34;10449711;28;20321;-57
2024/03/03 00:41:19;;;;;;;2.72;0.80;;;;;;;17.45;53.31;99684.44;10449223;28;20035;-57
2024/03/03 00:46:19;;;;;;;1.13;0.57;;;;;;;17.49;52.64;99680.03;10449117;28;20032;-57
2024/03/03 00:51:20;;;;;;;2.27;0.93;;;;;;;17.47;52.58;99688.38;10448990;28;20108;-57
2024/03/03 00:56:20;;;;;;;2.17;1.30;;;;;;;17.47;53.33;99683.03;10448892;28;20283;-57
2024/03/03 01:01:20;;;;;;;1.63;0.80;;;;;;;17.44;52.27;99670.25;10448954;28;20276;-57
2024/03/03 01:06:21;;;;;;;1.60;0.90;;;;;;;17.45;52.13;99685.25;10448725;28;20017;-57
2024/03/03 01:11:21;;;;;;;2.20;0.95;;;;;;;17.47;52.98;99676.88;10447980;28;20827;-56
2024/03/03 01:16:21;;;;;;;2.88;1.00;;;;;;;17.44;52.92;99675.63;10448524;28;20021;-57
2024/03/03 01:21:22;;;;;;;1.83;0.90;;;;;;;17.43;52.40;99678.63;10446604;28;20032;-56
2024/03/03 01:26:22;;;;;;;1.48;0.60;;;;;;;17.47;52.37;99676.88;10447534;28;20279;-57
2024/03/03 01:31:23;;;;;;;1.60;0.90;;;;;;;17.46;52.51;99669.94;10447959;28;20020;-57
2024/03/03 01:36:23;;;;;;;2.70;1.25;;;;;;;17.44;52.63;99677.50;10447779;28;20283;-57
2024/03/03 01:41:23;;;;;;;2.67;0.87;;;;;;;17.43;52.46;99666.00;10446922;28;20025;-56
2024/03/03 01:46:24;;;;;;;1.30;0.80;;;;;;;17.45;52.59;99674.53;10447610;28;20279;-57
2024/03/03 01:51:25;;;;;;;2.10;1.10;;;;;;;17.44;51.65;99667.59;10447224;28;20607;-57
2024/03/03 01:56:28;;;;;;;1.10;0.85;;;;;;;17.42;52.68;99675.16;10447382;28;20028;-57
2024/03/03 02:01:31;;;;;;;1.75;1.00;;;;;;;17.44;52.90;99683.66;10445367;28;20023;-57
2024/03/03 02:06:33;;;;;;;1.85;0.85;;;;;;;17.45;52.33;99682.56;10447645;28;20021;-57
2024/03/03 02:11:33;;;;;;;1.92;1.02;;;;;;;17.44;52.48;99674.84;10446635;28;20056;-57
2024/03/03 02:16:33;;;;;;;1.40;0.77;;;;;;;17.44;53.33;99664.13;10445763;28;20036;-57
2024/03/03 02:21:34;;;;;;;1.70;1.00;;;;;;;17.43;52.21;99687.44;10446605;28;20510;-57
2024/03/03 02:26:34;;;;;;;2.73;1.27;;;;;;;17.45;52.24;99679.88;10446839;28;20279;-57
2024/03/03 02:31:35;;;;;;;2.78;1.13;;;;;;;17.44;51.68;99685.56;10444992;28;20607;-57
2024/03/03 02:36:35;;;;;;;1.67;0.95;;;;;;;17.41;53.31;99692.34;10446758;28;20585;-57
2024/03/03 02:41:36;;;;;;;1.57;0.83;;;;;;;17.43;53.10;99692.81;10446127;28;20013;-57
2024/03/03 02:46:36;;;;;;;1.57;0.90;;;;;;;17.48;51.78;99698.00;10446359;28;20283;-57
2024/03/03 02:51:36;;;;;;;1.37;0.83;;;;;;;17.46;52.63;99683.34;10450161;28;20270;-57
2024/03/03 02:56:37;;;;;;;1.50;1.17;;;;;;;17.43;52.88;99684.78;10452288;28;20279;-57
2024/03/03 03:01:37;;;;;;;2.03;1.00;;;;;;;17.44;51.85;99691.69;10452956;28;20716;-57
2024/03/03 03:06:37;;;;;;;1.60;0.80;;;;;;;17.43;51.63;99690.13;10453165;28;20337;-57
2024/03/03 03:11:38;;;;;;;2.20;1.43;;;;;;;17.44;52.71;99697.06;10452180;28;20103;-57
2024/03/03 03:16:41;;;;;;;1.90;1.13;;;;;;;17.44;53.06;99689.03;10452943;28;20275;-57
2024/03/03 03:21:42;;;;;;;2.65;1.42;;;;;;;17.42;52.26;99687.75;10452278;28;20025;-57
2024/03/03 03:26:43;;;;;;;2.05;1.30;;;;;;;17.43;51.95;99686.66;10452513;28;20021;-57
2024/03/03 03:31:43;;;;;;;2.23;1.07;;;;;;;17.44;52.44;99689.03;10451729;28;20028;-57
2024/03/03 03:36:44;;;;;;;1.63;0.80;;;;;;;17.44;52.59;99693.59;10452066;28;20822;-57
2024/03/03 03:41:45;;;;;;;2.43;1.33;;;;;;;17.45;52.46;99695.16;10451257;28;20032;-57
2024/03/03 03:46:46;;;;;;;1.52;0.90;;;;;;;17.44;52.69;99701.63;10451700;28;20271;-57
2024/03/03 03:51:47;;;;;;;1.20;0.90;;;;;;;17.43;51.99;99690.13;10450628;28;20401;-57
2024/03/03 03:56:47;;;;;;;2.40;1.45;;;;;;;17.45;52.06;99695.97;10451165;28;20021;-57
2024/03/03 04:01:48;;;;;;;2.55;1.38;;;;;;;17.45;51.27;99698.63;10450341;28;20021;-57
2024/03/03 04:06:48;;;;;;;1.30;0.97;;;;;;;17.43;52.75;99687.44;10449456;28;20848;-57
2024/03/03 04:11:48;;;;;;;2.17;1.17;;;;;;;17.44;52.20;99693.59;10450051;28;20291;-57
2024/03/03 04:16:49;;;;;;;1.93;1.10;;;;;;;17.47;52.05;99692.97;10450655;28;20762;-57
2024/03/03 04:21:49;;;;;;;2.37;1.30;;;;;;;17.44;51.90;99702.41;10449985;28;20287;-57
2024/03/03 04:26:49;;;;;;;2.15;1.20;;;;;;;17.45;51.90;99695.16;10450155;28;20642;-57
2024/03/03 04:31:49;;;;;;;2.17;1.10;;;;;;;17.45;52.12;99682.56;10449359;28;20360;-57
2024/03/03 04:36:50;;;;;;;2.13;1.33;;;;;;;17.45;51.96;99711.25;10448316;28;20294;-57
2024/03/03 04:41:50;;;;;;;2.03;1.00;;;;;;;17.44;51.86;99712.34;10447629;28;20315;-57
2024/03/03 04:46:50;;;;;;;2.85;1.35;;;;;;;17.44;52.66;99712.34;10447687;28;20272;-57
2024/03/03 04:51:51;;;;;;;2.87;1.40;;;;;;;17.46;52.44;99712.81;10448273;28;20057;-57
2024/03/03 04:56:51;;;;;;;2.23;1.43;;;;;;;17.45;51.42;99722.75;10447521;28;20278;-57
2024/03/03 05:01:51;;;;;;;3.03;1.50;;;;;;;17.45;51.39;99716.59;10447045;28;20382;-57
2024/03/03 05:06:52;;;;;;;2.20;1.20;;;;;;;17.42;52.02;99711.88;10447026;28;20351;-57
2024/03/03 05:11:53;;;;;;;2.30;1.48;;;;;;;17.43;51.31;99732.22;10445829;28;20791;-56
2024/03/03 05:16:53;;;;;;;2.28;1.50;;;;;;;17.47;51.95;99733.94;10446824;28;20021;-57
2024/03/03 05:21:53;;;;;;;2.53;1.40;;;;;;;17.45;51.78;99752.22;10446497;28;20040;-57
2024/03/03 05:26:54;;;;;;;3.25;1.63;;;;;;;17.46;52.33;99761.84;10446027;28;20286;-57
2024/03/03 05:31:54;;;;;;;2.78;1.42;;;;;;;17.45;52.14;99759.47;10442390;28;20091;-57
2024/03/03 05:36:55;;;;;;;1.92;1.33;;;;;;;17.48;51.98;99777.63;10444487;28;20143;-57
2024/03/03 05:41:56;;;;;;;1.67;1.00;;;;;;;17.47;52.40;99792.91;10445800;28;20575;-57
2024/03/03 05:46:56;;;;;;;2.85;1.30;;;;;;;17.46;51.13;99782.50;10442544;28;20500;-57
2024/03/03 05:51:57;;;;;;;1.50;1.10;;;;;;;17.60;55.63;99804.63;10442250;28;20028;-55
2024/03/03 05:56:58;;;;;;;2.22;1.55;;;;;;;17.65;55.16;99811.75;10445090;28;21084;-57
2024/03/03 06:01:58;;;;;;;2.38;1.48;;;;;;;17.65;55.77;99814.44;10447958;28;20444;-57
2024/03/03 06:06:58;;;;;;;2.63;1.42;;;;;;;17.62;55.64;99812.34;10442475;28;20104;-56
2024/03/03 06:11:59;;;;;;;3.03;1.53;;;;;;;17.60;55.28;99817.22;10440933;28;20041;-56
2024/03/03 06:17:00;;;;;;;2.42;1.38;;;;;;;17.58;55.07;99814.88;10445167;28;20275;-57
2024/03/03 06:22:00;;;;;;;4.20;2.03;;;;;;;17.51;54.98;99820.66;10446469;28;20032;-57
2024/03/03 06:27:01;;;;;;;9.15;1.92;;;;;;;17.61;56.59;99832.22;10450228;28;20294;-59
2024/03/03 06:32:01;;;;;;;12.02;1.92;;;;;;;17.68;55.38;99828.00;10450403;28;20387;-57
2024/03/03 06:37:02;;;;;;;5.38;1.45;;;;;;;17.65;55.21;99827.81;10451261;28;20029;-58
2024/03/03 06:42:02;;;;;;;7.28;2.10;;;;;;;17.69;55.49;99829.59;10451415;28;20318;-59
2024/03/03 06:47:03;;;;;;;6.45;2.22;;;;;;;17.69;55.57;99828.81;10452420;28;20028;-59
2024/03/03 06:52:03;;;;;;;9.35;2.03;;;;;;;17.70;55.52;99816.97;10452565;28;20040;-58
2024/03/03 06:57:04;;;;;;;8.30;2.20;;;;;;;17.65;56.33;99823.25;10451447;28;20350;-58
2024/03/03 07:02:04;;;;;;;10.87;2.67;;;;;;;17.63;56.09;99838.84;10453033;28;20036;-62
2024/03/03 07:07:05;;;;;;;12.93;2.10;;;;;;;17.66;55.90;99846.28;10452145;28;20342;-59
2024/03/03 07:12:07;;;;;;;13.90;2.80;;;;;;;17.56;56.63;99851.13;10448654;28;21212;-58
2024/03/03 07:17:07;;;;;;;15.55;3.40;;;;;;;17.53;56.79;99864.06;10447277;28;20137;-59
2024/03/03 07:22:08;;;;;;;8.67;2.90;;;;;;;17.50;56.29;99883.41;10451221;28;20112;-59
2024/03/03 07:27:08;;;;;;;10.40;3.33;;;;;;;17.52;58.12;99865.16;10450282;28;21038;-59
2024/03/03 07:32:08;;;;;;;7.67;2.87;;;;;;;17.49;56.96;99864.97;10451063;28;20286;-60
2024/03/03 07:37:09;;;;;;;24.80;4.20;;;;;;;17.50;56.96;99871.91;10449673;28;20770;-60
2024/03/03 07:42:12;;;;;;;15.60;4.07;;;;;;;17.42;55.91;99876.13;10450135;28;20299;-62
2024/03/03 07:47:12;;;;;;;25.50;4.53;;;;;;;17.44;56.80;99890.00;10450179;28;20666;-60
2024/03/03 07:52:13;;;;;;;37.13;6.63;;;;;;;17.45;57.50;99883.56;10451279;28;20078;-61
2024/03/03 07:57:13;;;;;;;22.40;4.88;;;;;;;17.43;56.99;99896.47;10449995;28;20317;-62
2024/03/03 08:02:13;;;;;;;22.10;5.32;;;;;;;17.42;56.50;99905.63;10448396;28;20024;-61
2024/03/03 08:07:14;;;;;;;16.30;4.97;;;;;;;17.34;56.97;99881.44;10439113;28;20035;-62
2024/03/03 08:12:14;;;;;;;21.02;4.95;;;;;;;17.35;56.83;99864.25;10450122;28;20311;-61
2024/03/03 08:17:14;;;;;;;20.70;5.07;;;;;;;17.34;56.58;99865.38;10449565;28;20028;-60
2024/03/03 08:22:15;;;;;;;14.85;4.20;;;;;;;17.31;57.10;99844.56;10448740;28;20685;-60
2024/03/03 08:27:15;;;;;;;15.93;5.10;;;;;;;17.31;55.82;99836.50;10448656;28;20047;-60
2024/03/03 08:32:15;;;;;;;14.93;4.47;;;;;;;17.29;57.26;99860.16;10449885;28;20293;-61
2024/03/03 08:37:16;;;;;;;12.93;4.22;;;;;;;17.28;57.08;99888.81;10431607;28;20652;-61
2024/03/03 08:42:17;;;;;;;11.82;3.50;;;;;;;17.25;55.81;99892.09;10448270;28;20484;-61
2024/03/03 08:47:17;;;;;;;8.73;4.05;;;;;;;17.24;55.97;99894.00;10448242;28;20029;-60
2024/03/03 08:52:17;;;;;;;11.30;3.90;;;;;;;17.25;56.52;99876.03;10448751;28;20035;-61
2024/03/03 08:57:18;;;;;;;12.10;4.70;;;;;;;17.23;56.03;99870.19;10447487;28;20025;-60
2024/03/03 09:02:18;;;;;;;10.33;3.97;;;;;;;17.18;56.34;99870.31;10448114;28;20722;-60
2024/03/03 09:07:18;;;;;;;10.75;3.33;;;;;;;17.19;56.90;99901.38;10446443;28;20286;-60
2024/03/03 09:12:19;;;;;;;8.07;3.40;;;;;;;17.15;55.79;99911.09;10446607;28;20041;-61
2024/03/03 09:17:19;;;;;;;9.17;3.43;;;;;;;17.19;56.39;99928.16;10445151;28;20283;-60
2024/03/03 09:22:20;;;;;;;9.57;3.55;;;;;;;17.11;57.19;99920.84;10447504;28;20280;-60
2024/03/03 09:27:23;;;;;;;11.35;4.30;;;;;;;17.19;56.24;99912.88;10445261;28;20477;-60
2024/03/03 09:32:24;;;;;;;14.48;4.35;;;;;;;17.21;55.94;99921.41;10446345;28;20013;-61
2024/03/03 09:37:24;;;;;;;7.37;3.23;;;;;;;17.22;55.77;99920.31;10446079;28;20063;-61
2024/03/03 09:42:24;;;;;;;8.73;3.10;;;;;;;17.23;56.71;99924.56;10445058;28;21005;-61
2024/03/03 09:47:25;;;;;;;10.38;4.07;;;;;;;17.20;56.75;99927.84;10445911;28;20336;-61
2024/03/03 09:52:27;;;;;;;10.48;3.10;;;;;;;17.19;55.62;99928.97;10444920;28;20052;-61
2024/03/03 09:57:31;;;;;;;6.60;3.30;;;;;;;17.14;55.82;99949.69;10444243;28;20039;-60
2024/03/03 10:02:32;;;;;;;8.13;2.33;;;;;;;17.10;57.18;99951.41;10452671;28;20025;-60
2024/03/03 10:07:39;;;;;;;6.25;2.92;;;;;;;17.07;55.98;99947.47;10453699;28;20028;-61
2024/03/03 10:12:43;;;;;;;8.45;3.47;;;;;;;17.09;56.65;99945.25;10449485;28;20475;-60
2024/03/03 10:17:44;;;;;;;4.82;2.42;;;;;;;17.13;55.68;99938.19;10450878;28;20075;-60
2024/03/03 10:22:45;;;;;;;10.38;4.03;;;;;;;17.19;55.85;99938.88;10454462;28;20029;-60
2024/03/03 10:27:46;;;;;;;12.85;4.43;;;;;;;17.21;55.90;99937.47;10454742;28;20028;-60
2024/03/03 10:32:47;;;;;;;15.88;3.85;;;;;;;17.25;57.47;99937.66;10453885;28;20598;-60
2024/03/03 10:37:55;;;;;;;16.52;4.82;;;;;;;17.25;57.45;99927.72;10452840;28;20029;-61
2024/03/03 10:42:55;;;;;;;13.55;4.20;;;;;;;17.24;56.52;99925.34;10454209;28;20057;-62
2024/03/03 10:47:55;;;;;;;12.30;3.70;;;;;;;17.22;57.25;99920.31;10452617;28;20116;-59
2024/03/03 10:52:57;;;;;;;13.13;4.33;;;;;;;17.28;58.44;99920.16;10452763;28;20283;-60
2024/03/03 10:58:01;;;;;;;10.35;3.58;;;;;;;17.26;56.87;99928.50;10453268;28;20290;-60
2024/03/03 11:03:02;;;;;;;15.10;4.95;;;;;;;17.30;58.00;99931.38;10453652;28;20053;-60
2024/03/03 11:08:06;;;;;;;14.05;4.30;;;;;;;17.41;58.11;99927.38;10451822;28;20116;-60
2024/03/03 11:13:08;;;;;;;13.50;5.43;;;;;;;17.34;57.90;99929.66;10449270;28;20044;-60
2024/03/03 11:18:12;;;;;;;10.43;5.07;;;;;;;17.34;57.07;99945.75;10449390;28;20041;-61
2024/03/03 11:23:20;;;;;;;14.48;5.63;;;;;;;17.43;58.63;99922.47;10451463;28;20082;-59
2024/03/03 11:28:23;;;;;;;10.85;5.45;;;;;;;17.46;59.75;99911.94;10452243;28;20123;-59
2024/03/03 11:33:25;;;;;;;15.43;6.88;;;;;;;17.50;59.13;99898.69;10451171;28;20048;-61
2024/03/03 11:38:39;;;;;;;16.13;5.45;;;;;;;17.64;59.17;99888.69;10450495;28;20051;-61
2024/03/03 11:43:40;;;;;;;14.02;5.43;;;;;;;17.66;58.58;99857.00;10451849;28;20067;-60
2024/03/03 11:48:41;;;;;;;13.57;5.22;;;;;;;17.63;58.53;99862.16;10450319;28;20028;-59
2024/03/03 11:53:42;;;;;;;18.48;5.20;;;;;;;17.59;58.92;99888.03;10450289;28;20028;-61
2024/03/03 11:58:46;;;;;;;14.90;5.43;;;;;;;17.53;58.47;99884.69;10449788;28;20036;-58
2024/03/03 12:03:47;;;;;;;10.77;4.95;;;;;;;17.51;58.30;99886.88;10451204;28;20029;-59
2024/03/03 12:08:54;;;;;;;17.38;4.60;;;;;;;17.54;57.76;99879.03;10450601;28;20105;-58
2024/03/03 12:13:58;;;;;;;12.85;4.63;;;;;;;17.53;58.73;99869.41;10443584;28;20045;-59
2024/03/03 12:18:58;;;;;;;9.48;3.92;;;;;;;17.52;58.83;99864.34;10449162;28;20040;-59
2024/03/03 12:23:58;;;;;;;12.60;5.05;;;;;;;17.53;58.46;99858.69;10449142;28;20033;-58
2024/03/03 12:28:59;;;;;;;30.15;6.45;;;;;;;17.58;57.47;99851.59;10448039;28;20033;-59
2024/03/03 12:34:00;;;;;;;24.58;6.53;;;;;;;17.57;58.16;99836.63;10448637;28;20043;-59
2024/03/03 12:39:08;;;;;;;26.77;6.77;;;;;;;17.60;58.38;99839.47;10449423;28;20107;-60
2024/03/03 12:44:09;;;;;;;14.90;4.80;;;;;;;17.83;59.21;99840.19;10449769;28;20371;-61
2024/03/03 12:49:09;;;;;;;16.40;5.57;;;;;;;17.81;58.37;99845.09;10447316;28;20079;-61
2024/03/03 12:54:10;;;;;;;28.75;5.65;;;;;;;17.77;58.56;99836.88;10449403;28;20673;-62
2024/03/03 12:59:11;;;;;;;27.88;5.65;;;;;;;17.75;58.43;99846.31;10447902;28;20025;-60
2024/03/03 13:04:11;;;;;;;22.67;5.60;;;;;;;17.78;57.93;99832.31;10447979;28;20025;-60
2024/03/03 13:09:12;;;;;;;25.10;5.45;;;;;;;17.79;57.76;99834.69;10426734;28;20290;-61
2024/03/03 13:14:13;;;;;;;13.13;4.60;;;;;;;17.82;57.89;99844.00;10441948;28;20041;-60
2024/03/03 13:19:17;;;;;;;14.20;5.00;;;;;;;17.72;57.56;99828.97;10445624;28;20029;-59
2024/03/03 13:24:19;;;;;;;13.50;4.88;;;;;;;17.69;58.09;99844.91;10442946;28;20885;-60
2024/03/03 13:29:19;;;;;;;19.20;6.10;;;;;;;17.67;57.24;99857.78;10442041;28;20029;-59
2024/03/03 13:34:20;;;;;;;22.10;9.07;;;;;;;17.68;57.40;99848.66;10442914;28;20024;-60
2024/03/03 13:39:20;;;;;;;20.48;8.73;;;;;;;17.65;57.64;99866.16;10442996;28;20290;-60
2024/03/03 13:44:20;;;;;;;21.70;7.83;;;;;;;17.66;57.24;99867.72;10444397;28;20028;-61
2024/03/03 13:49:21;;;;;;;23.67;8.10;;;;;;;17.67;57.14;99866.63;10441735;28;20884;-60
2024/03/03 13:54:21;;;;;;;19.98;6.32;;;;;;;17.68;56.86;99867.41;10440132;28;20336;-61
2024/03/03 13:59:21;;;;;;;13.18;6.78;;;;;;;17.63;57.24;99873.69;10444856;28;20021;-61
2024/03/03 14:04:22;;;;;;;16.33;7.13;;;;;;;17.62;56.34;99871.31;10441447;28;20024;-61
2024/03/03 14:09:24;;;;;;;23.83;9.07;;;;;;;17.57;57.18;99877.63;10444524;28;20025;-60
2024/03/03 14:14:25;;;;;;;12.45;6.28;;;;;;;17.55;56.95;99879.81;10444087;28;20664;-60
2024/03/03 14:19:25;;;;;;;18.77;6.97;;;;;;;17.65;57.07;99874.19;10445349;28;20028;-59
2024/03/03 14:24:26;;;;;;;14.35;6.55;;;;;;;17.73;56.29;99864.63;10444002;28;20639;-58
2024/03/03 14:29:26;;;;;;;14.77;6.00;;;;;;;17.74;55.95;99871.56;10442719;28;20039;-60
2024/03/03 14:34:26;;;;;;;10.70;5.70;;;;;;;17.78;56.06;99875.22;10445061;28;20284;-61
2024/03/03 14:39:27;;;;;;;16.70;6.43;;;;;;;17.73;55.65;99878.00;10442636;28;20299;-60
2024/03/03 14:44:27;;;;;;;14.05;5.28;;;;;;;17.70;55.27;99884.00;10443651;28;20299;-60
2024/03/03 14:49:27;;;;;;;16.05;5.75;;;;;;;17.62;56.61;99906.97;10450849;28;20033;-60
2024/03/03 14:54:28;;;;;;;13.00;5.10;;;;;;;17.63;55.15;99910.44;10452826;28;20059;-60
2024/03/03 14:59:28;;;;;;;11.90;4.50;;;;;;;17.55;55.16;99906.63;10449378;28;20777;-60
2024/03/03 15:04:28;;;;;;;16.48;5.20;;;;;;;17.53;56.06;99911.50;10447228;28;20291;-58
2024/03/03 15:09:29;;;;;;;11.50;4.43;;;;;;;17.53;55.05;99911.50;10446649;28;20087;-59
2024/03/03 15:14:29;;;;;;;11.63;4.75;;;;;;;17.67;56.23;99916.78;10449563;28;20298;-62
2024/03/03 15:19:29;;;;;;;17.33;4.57;;;;;;;17.74;55.18;99925.19;10445939;28;20020;-59
2024/03/03 15:24:30;;;;;;;14.27;5.10;;;;;;;17.78;54.36;99928.84;10449015;28;20040;-59
2024/03/03 15:29:30;;;;;;;104.13;57.77;;;;;;;17.66;57.79;99934.75;10445974;28;20025;-60
2024/03/03 15:34:33;;;;;;;38.88;21.00;;;;;;;17.65;58.82;99943.09;10450147;28;20279;-60
2024/03/03 15:39:33;;;;;;;37.47;13.93;;;;;;;17.63;57.82;99953.31;10447723;28;20078;-61
2024/03/03 15:44:34;;;;;;;17.17;8.30;;;;;;;17.58;56.88;99956.94;10445362;28;20464;-60
2024/03/03 15:49:36;;;;;;;12.38;6.45;;;;;;;17.60;56.44;99959.31;10450001;28;20033;-60
2024/03/03 15:54:36;;;;;;;8.35;4.97;;;;;;;17.53;54.53;99949.03;10448657;28;20516;-60
2024/03/03 15:59:36;;;;;;;11.43;3.97;;;;;;;17.57;55.67;99962.59;10458259;28;20048;-62
2024/03/03 16:04:37;;;;;;;9.25;4.35;;;;;;;17.57;54.44;99966.06;10457188;28;20291;-59
2024/03/03 16:09:37;;;;;;;8.93;3.50;;;;;;;17.76;55.10;99971.25;10448681;28;20623;-61
2024/03/03 16:14:37;;;;;;;10.13;3.15;;;;;;;17.91;55.26;99967.38;10446175;28;20302;-59
2024/03/03 16:19:38;;;;;;;6.50;4.30;;;;;;;17.99;56.14;99978.13;10449945;28;20032;-63
2024/03/03 16:24:38;;;;;;;9.98;3.40;;;;;;;17.99;55.78;99986.19;10457482;28;20302;-60
2024/03/03 16:29:39;;;;;;;27.33;4.25;;;;;;;18.16;56.27;99982.00;10448461;28;20021;-61
2024/03/03 16:34:41;;;;;;;9.50;3.13;;;;;;;18.31;57.97;99984.25;10447852;28;20040;-60
2024/03/03 16:39:41;;;;;;;12.65;3.45;;;;;;;18.48;58.14;99983.53;10445091;28;20287;-63
2024/03/03 16:44:42;;;;;;;9.67;3.10;;;;;;;18.48;61.29;99989.69;10445749;28;20521;-60
2024/03/03 16:49:42;;;;;;;7.95;3.28;;;;;;;18.70;62.25;100000.31;10446730;28;20413;-62
2024/03/03 16:54:42;;;;;;;8.17;3.03;;;;;;;19.01;60.53;100006.69;10445247;28;20487;-58
2024/03/03 16:59:45;;;;;;;12.40;3.40;;;;;;;19.00;60.89;100005.91;10446464;28;20345;-65
2024/03/03 17:04:45;;;;;;;15.75;3.97;;;;;;;18.99;61.10;100009.69;10445408;28;20386;-57
2024/03/03 17:09:45;;;;;;;12.07;4.93;;;;;;;18.90;61.34;100016.97;10441582;28;20044;-58
2024/03/03 17:14:46;;;;;;;7.23;2.80;;;;;;;18.79;61.63;100021.84;10430847;28;20357;-56
2024/03/03 17:19:46;;;;;;;8.33;3.30;;;;;;;18.75;61.21;100030.84;10421133;28;20029;-63
2024/03/03 17:24:46;;;;;;;7.03;2.73;;;;;;;18.74;61.51;100029.25;10436191;28;20333;-62
2024/03/03 17:29:48;;;;;;;6.83;3.17;;;;;;;18.74;62.41;100043.47;10428334;28;20283;-61
2024/03/03 17:34:48;;;;;;;7.78;3.35;;;;;;;18.82;61.46;100053.44;10431320;28;20370;-60
2024/03/03 17:39:48;;;;;;;13.87;3.70;;;;;;;18.78;61.63;100057.06;10440539;28;20029;-60
2024/03/03 17:44:49;;;;;;;9.13;3.03;;;;;;;18.70;62.09;100058.63;10441470;28;20283;-61
2024/03/03 17:49:49;;;;;;;16.97;4.33;;;;;;;18.84;62.03;100075.41;10445921;28;20287;-64
2024/03/03 17:54:49;;;;;;;9.70;2.80;;;;;;;18.63;61.73;100077.84;10441681;28;20029;-61
2024/03/03 17:59:50;;;;;;;13.70;3.05;;;;;;;18.53;61.56;100086.19;10441116;28;20310;-61
2024/03/03 18:04:50;;;;;;;15.43;3.33;;;;;;;18.45;62.19;100094.97;10433155;28;20609;-60
2024/03/03 18:09:51;;;;;;;10.90;3.90;;;;;;;18.37;61.89;100106.50;10442030;28;20376;-61
2024/03/03 18:14:52;;;;;;;9.10;3.15;;;;;;;18.32;61.51;100123.50;10431235;28;20029;-60
2024/03/03 18:19:53;;;;;;;7.22;2.92;;;;;;;18.27;61.51;100129.00;10442962;28;20096;-60
2024/03/03 18:24:53;;;;;;;7.17;3.20;;;;;;;18.27;61.11;100131.69;10444195;28;20085;-60
2024/03/03 18:29:54;;;;;;;7.33;2.67;;;;;;;18.30;61.25;100131.06;10446654;28;20333;-61
2024/03/03 18:34:54;;;;;;;9.90;2.58;;;;;;;18.26;61.23;100132.00;10447791;28;20673;-60
2024/03/03 18:39:55;;;;;;;9.82;2.70;;;;;;;18.22;60.86;100139.06;10433727;28;20013;-60
2024/03/03 18:44:56;;;;;;;17.83;3.65;;;;;;;18.18;60.46;100146.16;10446910;28;20033;-61
2024/03/03 18:49:57;;;;;;;11.85;4.03;;;;;;;18.14;61.38;100147.88;10449273;28;20468;-60
2024/03/03 18:54:58;;;;;;;5.90;2.58;;;;;;;18.13;60.70;100159.72;10450897;28;20021;-60
2024/03/03 18:59:59;;;;;;;10.48;3.88;;;;;;;18.10;60.14;100159.19;10451322;28;20032;-61
2024/03/03 19:04:59;;;;;;;7.03;2.90;;;;;;;18.07;60.26;100162.50;10451928;28;20028;-60
2024/03/03 19:10:00;;;;;;;5.95;3.05;;;;;;;18.06;60.99;100171.66;10447891;28;20024;-60
2024/03/03 19:15:00;;;;;;;4.68;2.53;;;;;;;18.03;60.69;100183.00;10442496;28;20075;-60
2024/03/03 19:20:01;;;;;;;6.90;2.60;;;;;;;18.01;60.52;100184.41;10442220;28;20021;-60
2024/03/03 19:25:04;;;;;;;7.28;3.00;;;;;;;18.01;60.98;100187.88;10437119;28;20287;-61
2024/03/03 19:30:06;;;;;;;15.77;3.38;;;;;;;18.01;60.19;100200.50;10437695;28;20049;-62
2024/03/03 19:35:09;;;;;;;8.23;3.05;;;;;;;18.01;60.08;100206.66;10439984;28;20319;-61
2024/03/03 19:40:10;;;;;;;8.07;3.00;;;;;;;17.98;59.26;100204.56;10434893;28;20094;-60
2024/03/03 19:45:11;;;;;;;13.00;3.53;;;;;;;17.86;60.73;100196.25;10424530;28;20594;-61
2024/03/03 19:50:11;;;;;;;5.85;2.78;;;;;;;17.82;61.06;100212.16;10447000;28;20098;-62
2024/03/03 19:55:11;;;;;;;7.22;2.65;;;;;;;17.79;59.90;100222.72;10446521;28;20025;-61
2024/03/03 20:00:15;;;;;;;6.17;3.10;;;;;;;17.77;60.12;100235.63;10445281;28;20087;-61
2024/03/03 20:05:15;;;;;;;8.90;3.33;;;;;;;17.74;60.35;100242.38;10445863;28;20364;-61
2024/03/03 20:10:16;;;;;;;10.07;4.20;;;;;;;17.73;60.22;100248.81;10446111;28;20668;-61
2024/03/03 20:15:16;;;;;;;10.07;3.35;;;;;;;17.74;60.14;100260.34;10444411;28;20289;-61
2024/03/03 20:20:17;;;;;;;12.43;3.35;;;;;;;17.71;60.96;100266.31;10444458;28;20048;-61
2024/03/03 20:25:17;;;;;;;7.60;3.33;;;;;;;17.69;61.12;100266.63;10416651;28;20029;-62
2024/03/03 20:30:18;;;;;;;10.70;3.50;;;;;;;17.68;60.21;100272.25;10443945;28;20291;-62
2024/03/03 20:35:18;;;;;;;9.77;2.95;;;;;;;17.69;61.06;100273.88;10441921;28;20299;-62
2024/03/03 20:40:19;;;;;;;8.13;3.37;;;;;;;17.71;60.32;100282.41;10444911;28;20108;-62
2024/03/03 20:45:20;;;;;;;5.43;2.70;;;;;;;17.74;59.91;100292.53;10443920;28;20399;-61
2024/03/03 20:50:20;;;;;;;6.07;2.90;;;;;;;17.73;60.41;100286.38;10443792;28;20039;-61
2024/03/03 20:55:20;;;;;;;6.43;2.92;;;;;;;17.72;59.81;100284.78;10443052;28;20078;-61
2024/03/03 21:00:21;;;;;;;7.67;3.07;;;;;;;17.73;59.35;100307.03;10443274;28;20056;-61
2024/03/03 21:05:21;;;;;;;5.32;2.88;;;;;;;17.70;60.25;100311.09;10442543;28;20363;-61
2024/03/03 21:10:22;;;;;;;5.20;2.85;;;;;;;17.68;59.15;100312.47;10444183;28;20558;-60
2024/03/03 21:15:22;;;;;;;5.10;3.15;;;;;;;17.68;60.32;100329.34;10443462;28;20098;-61
2024/03/03 21:20:26;;;;;;;5.87;3.03;;;;;;;17.66;59.29;100331.53;10444322;28;20447;-61
2024/03/03 21:25:26;;;;;;;5.28;3.50;;;;;;;17.65;58.92;100334.53;10443379;28;20837;-61
2024/03/03 21:30:26;;;;;;;6.53;3.10;;;;;;;17.64;58.84;100344.47;10443328;28;20029;-61
2024/03/03 21:35:27;;;;;;;6.43;3.15;;;;;;;17.64;59.67;100335.59;10442020;28;20259;-61
2024/03/03 21:40:32;;;;;;;5.45;3.40;;;;;;;17.62;59.60;100343.94;10441538;28;20041;-61
2024/03/03 21:45:32;;;;;;;5.45;3.50;;;;;;;17.61;59.09;100350.41;10441620;28;20025;-61
2024/03/03 21:50:32;;;;;;;4.93;3.07;;;;;;;17.61;59.43;100360.31;10443423;28;20025;-61
2024/03/03 21:55:33;;;;;;;6.30;3.17;;;;;;;17.58;59.23;100359.03;10444858;28;20342;-61
2024/03/03 22:00:33;;;;;;;5.43;3.30;;;;;;;17.59;59.42;100359.84;10451714;28;20767;-61
2024/03/03 22:05:33;;;;;;;7.60;3.63;;;;;;;17.56;59.13;100360.44;10451009;28;20025;-61
2024/03/03 22:10:34;;;;;;;4.80;3.20;;;;;;;17.55;58.83;100373.03;10449929;28;20295;-61
2024/03/03 22:15:34;;;;;;;5.68;3.42;;;;;;;17.54;59.52;100382.97;10432707;28;20467;-61
2024/03/03 22:20:35;;;;;;;5.05;2.92;;;;;;;17.53;59.35;100381.38;10449733;28;20025;-61
2024/03/03 22:25:35;;;;;;;5.15;3.28;;;;;;;17.52;58.66;100376.28;10450827;28;20034;-60
2024/03/03 22:30:38;;;;;;;5.60;4.15;;;;;;;17.52;58.46;100376.28;10449020;28;20052;-61
2024/03/03 22:35:38;;;;;;;5.60;3.80;;;;;;;17.52;59.01;100377.13;10450096;28;20102;-61
2024/03/03 22:40:38;;;;;;;6.17;3.70;;;;;;;17.53;58.68;100377.91;10450239;28;20075;-62
2024/03/03 22:45:39;;;;;;;5.10;3.35;;;;;;;17.53;58.32;100391.31;10448215;28;20306;-61
2024/03/03 22:50:40;;;;;;;5.40;3.50;;;;;;;17.52;57.92;100381.66;10448760;28;20149;-61
2024/03/03 22:55:40;;;;;;;6.75;3.85;;;;;;;17.57;57.49;100389.63;10449939;28;20279;-62
2024/03/03 23:00:40;;;;;;;7.50;3.93;;;;;;;17.56;58.52;100389.91;10448632;28;20017;-62
2024/03/03 23:05:40;;;;;;;5.63;4.05;;;;;;;17.54;58.36;100395.59;10447274;28;20299;-62